createdAt,value
2017-09-06T00:01:37.539Z,24.03
2017-09-06T00:04:04.876Z,24.53
2017-09-06T00:06:32.220Z,22.67
2017-09-06T00:08:59.574Z,24.83
2017-09-06T00:11:26.889Z,22.10
2017-09-06T00:13:54.249Z,23.63
2017-09-06T00:16:21.589Z,24.67
2017-09-06T00:18:48.942Z,23.47
2017-09-06T00:21:16.253Z,24.30
2017-09-06T00:23:43.949Z,23.03
2017-09-06T00:26:11.288Z,22.97
2017-09-06T00:28:38.639Z,22.50
2017-09-06T00:31:05.967Z,23.13
2017-09-06T00:33:33.284Z,24.27
2017-09-06T00:36:00.634Z,23.73
2017-09-06T00:38:27.963Z,23.77
2017-09-06T00:40:55.306Z,23.23
2017-09-06T00:43:22.635Z,23.50
2017-09-06T00:45:49.987Z,21.60
2017-09-06T00:48:17.352Z,22.87
2017-09-06T00:50:44.673Z,22.63
2017-09-06T00:53:11.990Z,22.60
2017-09-06T00:55:39.344Z,21.90
2017-09-06T00:58:06.691Z,23.40
2017-09-06T01:00:34.045Z,22.93
2017-09-06T01:03:01.369Z,23.10
2017-09-06T01:05:28.731Z,22.20
2017-09-06T01:07:56.039Z,22.80
2017-09-06T01:10:23.422Z,23.87
2017-09-06T01:12:50.773Z,22.90
2017-09-06T01:15:19.005Z,23.50
2017-09-06T01:17:46.339Z,23.17
2017-09-06T01:20:13.994Z,23.40
2017-09-06T01:22:41.314Z,23.00
2017-09-06T01:25:08.632Z,21.33
2017-09-06T01:27:35.941Z,22.40
2017-09-06T01:30:03.278Z,21.57
2017-09-06T01:32:30.586Z,22.80
2017-09-06T01:34:57.953Z,22.60
2017-09-06T01:37:25.262Z,21.37
2017-09-06T01:39:52.625Z,21.00
2017-09-06T01:42:19.941Z,21.10
2017-09-06T01:44:47.313Z,22.37
2017-09-06T01:47:14.627Z,21.07
2017-09-06T01:49:41.985Z,21.60
2017-09-06T01:52:09.318Z,20.77
2017-09-06T01:54:36.668Z,20.17
2017-09-06T01:57:04.006Z,21.30
2017-09-06T01:59:31.337Z,21.23
2017-09-06T02:01:58.712Z,21.43
2017-09-06T02:04:26.019Z,20.33
2017-09-06T02:06:53.381Z,22.33
2017-09-06T02:09:20.700Z,20.50
2017-09-06T02:11:48.057Z,21.10
2017-09-06T02:14:15.390Z,19.90
2017-09-06T02:16:42.719Z,20.00
2017-09-06T02:19:10.035Z,20.80
2017-09-06T02:21:37.348Z,21.20
2017-09-06T02:24:04.674Z,20.47
2017-09-06T02:26:32.000Z,20.90
2017-09-06T02:28:59.332Z,21.93
2017-09-06T02:31:26.692Z,21.30
2017-09-06T02:33:54.034Z,20.40
2017-09-06T02:36:21.700Z,21.33
2017-09-06T02:38:49.006Z,20.57
2017-09-06T02:41:16.349Z,21.03
2017-09-06T02:43:43.686Z,19.60
2017-09-06T02:46:11.038Z,21.70
2017-09-06T02:48:38.391Z,21.57
2017-09-06T02:51:05.717Z,20.60
2017-09-06T02:53:33.051Z,21.30
2017-09-06T02:56:00.404Z,20.20
2017-09-06T02:58:27.774Z,20.77
2017-09-06T03:00:55.085Z,20.33
2017-09-06T03:03:22.409Z,21.43
2017-09-06T03:05:49.766Z,20.27
2017-09-06T03:08:17.096Z,20.97
2017-09-06T03:10:44.427Z,20.43
2017-09-06T03:13:11.777Z,20.23
2017-09-06T03:15:39.533Z,19.80
2017-09-06T03:18:06.872Z,19.53
2017-09-06T03:20:34.257Z,20.73
2017-09-06T03:23:01.557Z,19.90
2017-09-06T03:25:28.902Z,19.97
2017-09-06T03:27:56.251Z,19.30
2017-09-06T03:30:23.566Z,19.30
2017-09-06T03:32:51.038Z,19.00
2017-09-06T03:35:18.357Z,19.00
2017-09-06T03:37:45.724Z,19.43
2017-09-06T03:40:13.037Z,19.33
2017-09-06T03:42:40.508Z,19.57
2017-09-06T03:45:08.291Z,19.93
2017-09-06T03:47:35.619Z,18.80
2017-09-06T03:50:02.926Z,20.20
2017-09-06T03:52:30.278Z,19.80
2017-09-06T03:54:57.602Z,19.57
2017-09-06T03:57:24.951Z,19.83
2017-09-06T03:59:52.285Z,19.23
2017-09-06T04:02:19.629Z,18.87
2017-09-06T04:04:46.946Z,19.10
2017-09-06T04:07:14.264Z,19.20
2017-09-06T04:09:41.588Z,19.33
2017-09-06T04:12:08.915Z,19.03
2017-09-06T04:14:36.240Z,18.50
2017-09-06T04:17:03.572Z,19.17
2017-09-06T04:19:30.911Z,19.77
2017-09-06T04:21:58.276Z,20.67
2017-09-06T04:24:25.582Z,19.60
2017-09-06T04:26:52.923Z,19.40
2017-09-06T04:29:20.222Z,20.10
2017-09-06T04:31:47.560Z,19.27
2017-09-06T04:34:14.866Z,19.93
2017-09-06T04:36:42.214Z,19.00
2017-09-06T04:39:09.542Z,18.50
2017-09-06T04:41:36.918Z,19.37
2017-09-06T04:44:04.239Z,19.70
2017-09-06T04:46:31.577Z,18.80
2017-09-06T04:48:58.922Z,19.40
2017-09-06T04:51:26.243Z,19.03
2017-09-06T04:53:53.598Z,17.73
2017-09-06T04:56:20.936Z,19.00
2017-09-06T04:58:48.258Z,18.47
2017-09-06T05:01:15.587Z,19.00
2017-09-06T05:03:42.920Z,19.60
2017-09-06T05:06:10.233Z,19.70
2017-09-06T05:08:37.562Z,19.77
2017-09-06T05:11:04.864Z,20.60
2017-09-06T05:13:32.188Z,19.80
2017-09-06T05:15:59.521Z,19.50
2017-09-06T05:18:26.825Z,19.13
2017-09-06T05:20:54.151Z,19.00
2017-09-06T05:23:21.490Z,19.33
2017-09-06T05:25:48.819Z,19.43
2017-09-06T05:28:16.174Z,19.70
2017-09-06T05:30:43.504Z,19.80
2017-09-06T05:33:10.879Z,20.10
2017-09-06T05:35:39.114Z,19.43
2017-09-06T05:38:06.448Z,17.97
2017-09-06T05:40:33.894Z,19.80
2017-09-06T05:43:01.256Z,19.90
2017-09-06T05:45:28.580Z,19.80
2017-09-06T05:47:55.920Z,19.33
2017-09-06T05:50:23.321Z,18.83
2017-09-06T05:52:50.642Z,18.77
2017-09-06T05:55:17.953Z,19.20
2017-09-06T05:57:45.362Z,20.10
2017-09-06T06:00:12.693Z,20.17
2017-09-06T06:02:40.038Z,19.27
2017-09-06T06:05:07.352Z,20.07
2017-09-06T06:07:34.695Z,20.53
2017-09-06T06:10:02.025Z,19.37
2017-09-06T06:12:29.387Z,19.60
2017-09-06T06:14:56.704Z,20.33
2017-09-06T06:17:24.011Z,18.93
2017-09-06T06:19:51.366Z,19.30
2017-09-06T06:22:18.687Z,19.90
2017-09-06T06:24:46.362Z,20.70
2017-09-06T06:27:13.665Z,20.13
2017-09-06T06:29:41.043Z,20.80
2017-09-06T06:32:08.378Z,21.40
2017-09-06T06:34:35.708Z,19.07
2017-09-06T06:37:03.042Z,18.80
2017-09-06T06:39:30.358Z,19.23
2017-09-06T06:41:57.673Z,19.63
2017-09-06T06:44:25.007Z,21.03
2017-09-06T06:46:52.319Z,20.27
2017-09-06T06:49:19.675Z,19.70
2017-09-06T06:51:46.984Z,19.40
2017-09-06T06:54:14.460Z,19.77
2017-09-06T06:56:42.061Z,20.00
2017-09-06T06:59:09.846Z,19.70
2017-09-06T07:01:37.184Z,19.47
2017-09-06T07:04:04.535Z,18.80
2017-09-06T07:06:32.728Z,18.57
2017-09-06T07:09:00.048Z,19.93
2017-09-06T07:11:27.358Z,18.70
2017-09-06T07:13:55.023Z,18.03
2017-09-06T07:16:22.375Z,20.10
2017-09-06T07:18:49.698Z,18.97
2017-09-06T07:21:17.038Z,18.77
2017-09-06T07:23:44.476Z,18.13
2017-09-06T07:26:11.813Z,18.73
2017-09-06T07:28:39.178Z,18.27
2017-09-06T07:31:06.489Z,19.20
2017-09-06T07:33:33.822Z,18.77
2017-09-06T07:36:01.144Z,19.10
2017-09-06T07:38:28.456Z,19.50
2017-09-06T07:40:55.774Z,18.43
2017-09-06T07:43:23.120Z,22.20
2017-09-06T07:45:50.474Z,19.80
2017-09-06T07:48:17.780Z,17.43
2017-09-06T07:50:45.150Z,18.30
2017-09-06T07:53:12.470Z,19.90
2017-09-06T07:55:39.821Z,18.07
2017-09-06T07:58:07.182Z,18.70
2017-09-06T08:00:34.516Z,18.60
2017-09-06T08:03:01.843Z,18.07
2017-09-06T08:05:29.200Z,18.03
2017-09-06T08:08:02.126Z,18.17
2017-09-06T08:10:29.445Z,18.10
2017-09-06T08:12:56.792Z,17.97
2017-09-06T08:15:24.138Z,18.40
2017-09-06T08:17:51.450Z,19.30
2017-09-06T08:20:18.776Z,19.87
2017-09-06T08:22:46.077Z,19.60
2017-09-06T08:25:13.450Z,21.20
2017-09-06T08:27:40.778Z,21.37
2017-09-06T08:30:08.149Z,20.70
2017-09-06T08:32:35.489Z,20.83
2017-09-06T08:35:02.819Z,22.60
2017-09-06T08:37:30.138Z,22.27
2017-09-06T08:39:57.476Z,22.60
2017-09-06T08:42:24.831Z,22.40
2017-09-06T08:44:52.158Z,22.53
2017-09-06T08:47:19.511Z,21.80
2017-09-06T08:49:46.853Z,22.27
2017-09-06T08:52:14.178Z,20.83
2017-09-06T08:54:41.540Z,22.57
2017-09-06T08:57:08.862Z,22.30
2017-09-06T08:59:36.208Z,23.00
2017-09-06T09:02:03.549Z,21.63
2017-09-06T09:04:30.900Z,21.73
2017-09-06T09:06:58.205Z,20.20
2017-09-06T09:09:25.546Z,19.53
2017-09-06T09:11:52.854Z,20.80
2017-09-06T09:14:20.162Z,21.17
2017-09-06T09:16:47.512Z,21.17
2017-09-06T09:19:14.843Z,19.80
2017-09-06T09:21:42.209Z,19.80
2017-09-06T09:24:09.841Z,20.20
2017-09-06T09:26:37.184Z,19.30
2017-09-06T09:29:04.561Z,18.00
2017-09-06T09:31:31.891Z,18.30
2017-09-06T09:33:59.232Z,18.70
2017-09-06T09:36:26.577Z,17.70
2017-09-06T09:38:53.934Z,19.83
2017-09-06T09:41:21.299Z,18.03
2017-09-06T09:43:48.615Z,18.43
2017-09-06T09:46:15.937Z,20.20
2017-09-06T09:48:43.270Z,18.90
2017-09-06T09:51:10.623Z,18.30
2017-09-06T09:53:37.917Z,18.70
2017-09-06T09:56:05.330Z,19.03
2017-09-06T09:58:32.831Z,19.73
2017-09-06T10:01:00.203Z,17.50
2017-09-06T10:03:27.528Z,18.97
2017-09-06T10:05:54.875Z,17.40
2017-09-06T10:08:22.219Z,17.80
2017-09-06T10:10:49.547Z,17.73
2017-09-06T10:13:16.863Z,16.50
2017-09-06T10:15:44.205Z,17.47
2017-09-06T10:18:12.308Z,18.37
2017-09-06T10:20:40.111Z,17.70
2017-09-06T10:23:07.437Z,17.30
2017-09-06T10:25:34.811Z,18.27
2017-09-06T10:28:02.128Z,17.93
2017-09-06T10:30:29.513Z,18.00
2017-09-06T10:32:56.813Z,17.13
2017-09-06T10:35:24.162Z,16.20
2017-09-06T10:37:51.495Z,15.30
2017-09-06T10:40:18.819Z,15.27
2017-09-06T10:42:46.167Z,15.70
2017-09-06T10:45:13.475Z,15.40
2017-09-06T10:47:40.807Z,15.00
2017-09-06T10:50:08.123Z,15.67
2017-09-06T10:52:35.450Z,14.80
2017-09-06T10:55:02.769Z,14.80
2017-09-06T10:57:30.144Z,14.47
2017-09-06T10:59:57.454Z,15.00
2017-09-06T11:02:24.786Z,15.60
2017-09-06T11:04:53.782Z,16.57
2017-09-06T11:07:21.149Z,16.77
2017-09-06T11:09:48.468Z,16.93
2017-09-06T11:12:16.158Z,14.50
2017-09-06T11:14:44.277Z,13.43
2017-09-06T11:17:11.624Z,12.70
2017-09-06T11:19:38.938Z,10.97
2017-09-06T11:22:07.470Z,10.37
2017-09-06T11:24:34.807Z,8.13
2017-09-06T11:27:02.126Z,9.40
2017-09-06T11:29:29.440Z,6.53
2017-09-06T11:31:56.785Z,6.40
2017-09-06T11:34:24.108Z,6.30
2017-09-06T11:36:51.426Z,6.30
2017-09-06T11:39:18.721Z,5.53
2017-09-06T11:41:46.075Z,5.60
2017-09-06T11:44:13.424Z,5.50
2017-09-06T11:46:40.748Z,5.63
2017-09-06T11:49:08.070Z,5.40
2017-09-06T11:51:35.440Z,5.20
2017-09-06T11:54:02.760Z,5.97
2017-09-06T11:56:30.098Z,5.70
2017-09-06T11:58:57.427Z,6.20
2017-09-06T12:01:24.732Z,5.93
2017-09-06T12:03:52.954Z,5.90
2017-09-06T12:06:20.266Z,5.60
2017-09-06T12:08:47.577Z,5.97
2017-09-06T12:11:14.865Z,5.80
2017-09-06T12:13:42.208Z,6.03
2017-09-06T12:16:09.554Z,6.03
2017-09-06T12:18:40.110Z,5.07
2017-09-06T12:21:07.426Z,5.63
2017-09-06T12:23:34.784Z,6.00
2017-09-06T12:26:02.081Z,5.70
2017-09-06T12:28:29.428Z,5.47
2017-09-06T12:30:56.755Z,5.87
2017-09-06T12:33:24.075Z,5.63
2017-09-06T12:35:51.365Z,5.20
2017-09-06T12:38:18.672Z,5.90
2017-09-06T12:40:45.982Z,5.83
2017-09-06T12:43:13.303Z,5.50
2017-09-06T12:45:41.982Z,5.70
2017-09-06T12:48:09.294Z,5.30
2017-09-06T12:50:36.612Z,5.83
2017-09-06T12:53:03.922Z,5.10
2017-09-06T12:55:31.223Z,5.53
2017-09-06T12:57:58.549Z,4.87
2017-09-06T13:00:29.197Z,5.10
2017-09-06T13:02:56.518Z,5.60
2017-09-06T13:05:23.839Z,5.20
2017-09-06T13:07:51.199Z,5.30
2017-09-06T13:10:18.536Z,5.60
2017-09-06T13:12:45.868Z,5.40
2017-09-06T13:15:13.190Z,5.20
2017-09-06T13:17:42.338Z,4.97
2017-09-06T13:20:09.652Z,5.53
2017-09-06T13:22:37.281Z,5.40
2017-09-06T13:25:04.623Z,5.23
2017-09-06T13:27:31.963Z,5.70
2017-09-06T13:30:00.065Z,5.90
2017-09-06T13:32:27.389Z,5.50
2017-09-06T13:34:54.690Z,6.13
2017-09-06T13:37:22.004Z,6.47
2017-09-06T13:39:49.323Z,6.83
2017-09-06T13:42:16.606Z,6.23
2017-09-06T13:44:44.456Z,6.57
2017-09-06T13:47:11.757Z,6.97
2017-09-06T13:49:39.060Z,7.33
2017-09-06T13:52:06.386Z,7.23
2017-09-06T13:54:33.750Z,7.50
2017-09-06T13:57:01.068Z,8.03
2017-09-06T13:59:28.414Z,7.30
2017-09-06T14:01:55.754Z,7.97
2017-09-06T14:04:23.134Z,7.77
2017-09-06T14:06:50.449Z,8.23
2017-09-06T14:09:17.801Z,9.00
2017-09-06T14:11:45.109Z,0.50
2017-09-06T14:14:12.430Z,0.40
2017-09-06T14:16:39.733Z,0.40
2017-09-06T14:19:07.049Z,0.40
2017-09-06T14:21:34.425Z,0.40
2017-09-06T14:24:01.781Z,0.40
2017-09-06T14:26:29.089Z,0.40
2017-09-06T14:28:56.420Z,0.40
2017-09-06T14:32:32.138Z,0.70
2017-09-06T14:34:59.608Z,0.50
2017-09-06T14:37:26.973Z,0.40
2017-09-06T14:39:54.311Z,0.40
2017-09-06T14:42:21.613Z,0.40
2017-09-06T14:44:48.953Z,0.40
2017-09-06T14:47:16.346Z,0.40
2017-09-06T14:49:43.658Z,0.40
2017-09-06T14:52:10.971Z,0.40
2017-09-06T14:54:38.272Z,0.50
2017-09-06T14:57:05.564Z,0.40
2017-09-06T14:59:32.965Z,0.40
2017-09-06T15:02:00.254Z,0.40
2017-09-06T15:04:27.622Z,0.40
2017-09-06T15:06:54.932Z,0.57
2017-09-06T15:09:22.305Z,0.40
2017-09-06T15:11:49.627Z,0.40
2017-09-06T15:14:16.997Z,0.50
2017-09-06T15:16:44.315Z,0.40
2017-09-06T15:19:11.677Z,0.40
2017-09-06T15:21:38.986Z,0.40
2017-09-06T15:24:06.338Z,0.40
2017-09-06T15:26:33.654Z,0.40
2017-09-06T15:29:01.014Z,0.40
2017-09-06T15:31:28.323Z,0.37
2017-09-06T15:33:55.634Z,0.40
2017-09-06T15:36:22.930Z,0.40
2017-09-06T15:38:50.246Z,0.40
2017-09-06T15:41:17.537Z,0.40
2017-09-06T15:43:44.864Z,0.40
2017-09-06T15:46:12.175Z,0.40
2017-09-06T15:48:39.457Z,0.37
2017-09-06T15:51:06.794Z,0.40
2017-09-06T15:53:34.076Z,0.40
2017-09-06T15:56:01.380Z,0.40
2017-09-06T15:58:28.684Z,0.50
2017-09-06T16:00:56.042Z,0.40
2017-09-06T16:03:23.372Z,0.63
2017-09-06T16:05:50.712Z,0.50
2017-09-06T16:08:18.487Z,0.40
2017-09-06T16:10:45.839Z,0.40
2017-09-06T16:13:13.153Z,0.30
2017-09-06T16:15:40.469Z,0.40
2017-09-06T16:18:07.769Z,0.40
2017-09-06T16:20:35.067Z,0.40
2017-09-06T16:23:02.411Z,0.40
2017-09-06T16:25:29.774Z,0.30
2017-09-06T16:27:57.134Z,0.40
2017-09-06T16:30:24.438Z,0.40
2017-09-06T16:32:51.737Z,0.40
2017-09-06T16:35:19.045Z,0.40
2017-09-06T16:37:46.345Z,0.30
2017-09-06T16:40:13.702Z,0.33
2017-09-06T16:42:41.023Z,0.60
2017-09-06T16:45:08.333Z,0.40
2017-09-06T16:47:35.701Z,0.40
2017-09-06T16:50:04.541Z,0.40
2017-09-06T16:52:32.786Z,0.40
2017-09-06T16:55:00.085Z,0.40
2017-09-06T16:57:27.408Z,0.40
2017-09-06T16:59:54.710Z,0.40
2017-09-06T17:02:22.013Z,0.50
2017-09-06T17:04:49.329Z,0.40
2017-09-06T17:07:16.645Z,0.40
2017-09-06T17:09:43.932Z,0.40
2017-09-06T17:12:11.277Z,0.40
2017-09-06T17:14:38.613Z,0.40
2017-09-06T17:17:05.923Z,0.40
2017-09-06T17:19:33.212Z,0.40
2017-09-06T17:22:00.537Z,0.40
2017-09-06T17:24:27.862Z,0.40
2017-09-06T17:26:55.169Z,0.40
2017-09-06T17:29:22.464Z,0.40
2017-09-06T17:31:49.802Z,0.40
2017-09-06T17:34:17.126Z,0.50
2017-09-06T17:36:44.446Z,0.40
2017-09-06T17:39:11.744Z,0.40
2017-09-06T17:41:39.079Z,0.40
2017-09-06T17:44:06.385Z,0.50
2017-09-06T17:46:33.691Z,0.50
2017-09-06T17:49:00.984Z,0.50
2017-09-06T17:51:28.312Z,0.50
2017-09-06T17:53:55.600Z,0.50
2017-09-06T17:56:22.929Z,0.50
2017-09-06T17:58:50.230Z,0.50
2017-09-06T18:01:17.525Z,0.50
2017-09-06T18:03:44.837Z,0.43
2017-09-06T18:06:12.141Z,0.50
2017-09-06T18:08:39.444Z,0.43
2017-09-06T18:11:06.741Z,0.50
2017-09-06T18:13:34.076Z,0.50
2017-09-06T18:16:01.404Z,0.50
2017-09-06T18:18:28.722Z,0.60
2017-09-06T18:20:56.004Z,0.50
2017-09-06T18:23:23.374Z,0.50
2017-09-06T18:25:50.680Z,0.50
2017-09-06T18:28:18.028Z,0.50
2017-09-06T18:30:45.369Z,0.50
2017-09-06T18:33:12.709Z,0.50
2017-09-06T18:35:39.997Z,0.50
2017-09-06T18:38:07.314Z,0.50
2017-09-06T18:40:34.617Z,0.50
2017-09-06T18:43:01.954Z,0.50
2017-09-06T18:45:29.251Z,0.50
2017-09-06T18:47:56.548Z,0.50
2017-09-06T18:50:24.150Z,0.50
2017-09-06T18:52:51.449Z,0.60
2017-09-06T18:55:18.752Z,0.60
2017-09-06T18:57:46.064Z,0.57
2017-09-06T19:00:13.350Z,0.50
2017-09-06T19:02:40.794Z,0.57
2017-09-06T19:05:08.102Z,0.60
2017-09-06T19:07:35.397Z,0.53
2017-09-06T19:10:02.746Z,0.60
2017-09-06T19:12:30.048Z,0.50
2017-09-06T19:14:57.351Z,0.53
2017-09-06T19:17:24.643Z,0.60
2017-09-06T19:19:52.000Z,0.50
2017-09-06T19:22:19.322Z,0.50
2017-09-06T19:24:46.637Z,0.60
2017-09-06T19:27:13.943Z,0.70
2017-09-06T19:29:41.244Z,0.50
2017-09-06T19:32:08.541Z,0.60
2017-09-06T19:34:35.854Z,0.50
2017-09-06T19:37:03.144Z,0.60
2017-09-06T19:39:30.458Z,0.50
2017-09-06T19:41:57.740Z,0.50
2017-09-06T19:44:25.063Z,0.50
2017-09-06T19:46:52.366Z,0.73
2017-09-06T19:49:19.672Z,0.60
2017-09-06T19:51:47.002Z,0.60
2017-09-06T19:54:14.314Z,0.50
2017-09-06T19:56:41.588Z,0.50
2017-09-06T19:59:08.898Z,0.60
2017-09-06T20:01:36.185Z,0.50
2017-09-06T20:04:03.513Z,0.60
2017-09-06T20:06:30.847Z,0.50
2017-09-06T20:08:58.133Z,0.53
2017-09-06T20:11:25.454Z,0.50
2017-09-06T20:13:52.775Z,0.60
2017-09-06T20:16:20.072Z,0.60
2017-09-06T20:18:47.364Z,0.80
2017-09-06T20:21:14.686Z,0.60
2017-09-06T20:23:41.986Z,0.50
2017-09-06T20:26:09.289Z,0.70
2017-09-06T20:28:36.610Z,0.50
2017-09-06T20:31:03.937Z,0.60
2017-09-06T20:33:31.229Z,0.50
2017-09-06T20:35:58.546Z,0.50
2017-09-06T20:38:25.855Z,0.60
2017-09-06T20:40:53.165Z,0.60
2017-09-06T20:43:20.456Z,0.57
2017-09-06T20:45:47.761Z,0.60
2017-09-06T20:48:15.057Z,0.57
2017-09-06T20:50:42.404Z,0.60
2017-09-06T20:53:09.703Z,0.60
2017-09-06T20:55:36.995Z,0.50
2017-09-06T20:58:04.311Z,0.50
2017-09-06T21:00:31.638Z,0.50
2017-09-06T21:02:58.944Z,0.60
2017-09-06T21:05:26.252Z,0.50
2017-09-06T21:07:53.572Z,0.57
2017-09-06T21:10:21.194Z,0.60
2017-09-06T21:12:48.509Z,0.60
2017-09-06T21:15:15.789Z,0.60
2017-09-06T21:17:43.137Z,0.60
2017-09-06T21:20:10.776Z,0.57
2017-09-06T21:22:38.089Z,0.60
2017-09-06T21:25:05.391Z,0.60
2017-09-06T21:27:32.718Z,0.60
2017-09-06T21:30:00.021Z,0.60
2017-09-06T21:32:27.530Z,0.60
2017-09-06T21:34:54.816Z,0.50
2017-09-06T21:37:22.109Z,0.50
2017-09-06T21:39:49.416Z,0.60
2017-09-06T21:42:16.728Z,0.60
2017-09-06T21:44:44.029Z,0.53
2017-09-06T21:47:11.316Z,0.50
2017-09-06T21:49:38.625Z,0.50
2017-09-06T21:52:05.926Z,0.50
2017-09-06T21:54:33.233Z,0.60
2017-09-06T21:57:00.525Z,0.50
2017-09-06T21:59:27.837Z,0.50
2017-09-06T22:01:55.161Z,0.50
2017-09-06T22:04:22.477Z,0.60
2017-09-06T22:06:49.764Z,0.50
2017-09-06T22:09:17.073Z,0.60
2017-09-06T22:11:44.366Z,0.60
2017-09-06T22:14:11.663Z,0.50
2017-09-06T22:16:38.956Z,0.60
2017-09-06T22:19:06.264Z,0.50
2017-09-06T22:21:33.581Z,0.50
2017-09-06T22:24:00.880Z,0.60
2017-09-06T22:26:28.181Z,0.50
2017-09-06T22:28:55.544Z,0.50
2017-09-06T22:31:22.845Z,0.60
2017-09-06T22:33:50.145Z,0.50
2017-09-06T22:36:17.458Z,0.60
2017-09-06T22:38:44.756Z,0.50
2017-09-06T22:41:12.075Z,0.50
2017-09-06T22:43:39.365Z,0.50
2017-09-06T22:46:06.726Z,0.50
2017-09-06T22:48:34.034Z,0.60
2017-09-06T22:51:01.331Z,0.60
2017-09-06T22:53:28.614Z,0.57
2017-09-06T22:55:55.926Z,0.60
2017-09-06T22:58:23.218Z,0.60
2017-09-06T23:00:50.545Z,0.60
2017-09-06T23:03:17.853Z,0.50
2017-09-06T23:05:45.166Z,0.60
2017-09-06T23:08:12.444Z,0.60
2017-09-06T23:10:39.756Z,0.60
2017-09-06T23:13:07.056Z,0.57
2017-09-06T23:15:34.388Z,0.50
2017-09-06T23:18:01.718Z,0.60
2017-09-06T23:20:29.038Z,1.67
2017-09-06T23:22:56.330Z,0.70
2017-09-06T23:25:23.637Z,0.60
2017-09-06T23:27:50.931Z,0.57
2017-09-06T23:30:18.243Z,0.50
2017-09-06T23:32:45.761Z,0.50
2017-09-06T23:35:13.087Z,0.60
2017-09-06T23:37:40.384Z,0.60
2017-09-06T23:40:07.724Z,0.57
2017-09-06T23:42:35.022Z,0.60
2017-09-06T23:45:02.307Z,0.50
2017-09-06T23:47:29.616Z,0.60
2017-09-06T23:49:56.954Z,0.50
2017-09-06T23:52:24.302Z,1.20
2017-09-06T23:54:51.619Z,0.60
2017-09-06T23:57:18.925Z,0.60
2017-09-06T23:59:46.222Z,0.50
